NWK1607 YPKG-YPPH
Flight info
| Callsign | NWK1607 |
|---|---|
| Flight time | 0h 49m |
| Altitude | 32000 |
| Route | KG Q41 MALUP Q158 KABLI |
| Aircraft | A320/M-SDE3FGHIRWYZ/LB1 |
Departure
| Time | 2026-05-07 04:50 |
|---|---|
| Airport | Kalgoorlie Boulder Airport (YPKG) |
Arrival
| Time | 2026-05-07 05:39 |
|---|---|
| Airport | Perth International Airport (YPPH) |
| Time | Latitude | Longitude | Altitude | Speed | Heading |
|---|---|---|---|---|---|
| 2026-05-07 04:22 | -30.78593 | 121.45806 | 1212 ft | 0 kts | 54° |
| 2026-05-07 04:47 | -30.78594 | 121.45808 | 1212 ft | 0 kts | 75° |
| 2026-05-07 04:47 | -30.78595 | 121.45810 | 1212 ft | 0 kts | 100° |
| 2026-05-07 04:47 | -30.78604 | 121.45813 | 1212 ft | 2 kts | 163° |
| 2026-05-07 04:48 | -30.78639 | 121.45804 | 1212 ft | 9 kts | 195° |
| 2026-05-07 04:48 | -30.78705 | 121.45782 | 1212 ft | 11 kts | 199° |
| 2026-05-07 04:48 | -30.78785 | 121.45748 | 1212 ft | 13 kts | 200° |
| 2026-05-07 04:48 | -30.78876 | 121.45703 | 1213 ft | 14 kts | 225° |
| 2026-05-07 04:49 | -30.78867 | 121.45589 | 1214 ft | 16 kts | 290° |
| 2026-05-07 04:49 | -30.78855 | 121.45479 | 1214 ft | 8 kts | 300° |
| 2026-05-07 04:49 | -30.78837 | 121.45492 | 1214 ft | 4 kts | 77° |
| 2026-05-07 04:49 | -30.78849 | 121.45536 | 1214 ft | 8 kts | 109° |
| 2026-05-07 04:50 | -30.78906 | 121.45721 | 1214 ft | 55 kts | 109° |
| 2026-05-07 04:50 | -30.79120 | 121.46405 | 1210 ft | 121 kts | 110° |
| 2026-05-07 04:50 | -30.79457 | 121.47387 | 1630 ft | 127 kts | 110° |
| 2026-05-07 04:50 | -30.79789 | 121.48369 | 2110 ft | 134 kts | 109° |
| 2026-05-07 04:51 | -30.80135 | 121.49426 | 2492 ft | 150 kts | 116° |
| 2026-05-07 04:51 | -30.80960 | 121.50321 | 2690 ft | 183 kts | 157° |
| 2026-05-07 04:51 | -30.82295 | 121.50375 | 3047 ft | 211 kts | 193° |
| 2026-05-07 04:51 | -30.83491 | 121.49389 | 3853 ft | 217 kts | 230° |
| 2026-05-07 04:52 | -30.84031 | 121.47732 | 4599 ft | 226 kts | 265° |
| 2026-05-07 04:52 | -30.83776 | 121.45928 | 5361 ft | 228 kts | 287° |
| 2026-05-07 04:52 | -30.83265 | 121.44160 | 6025 ft | 236 kts | 289° |
| 2026-05-07 04:52 | -30.82690 | 121.42276 | 6443 ft | 257 kts | 290° |
| 2026-05-07 04:53 | -30.82312 | 121.40239 | 7125 ft | 265 kts | 268° |
| 2026-05-07 04:53 | -30.82728 | 121.38111 | 7777 ft | 276 kts | 242° |
| 2026-05-07 04:53 | -30.83729 | 121.36175 | 8440 ft | 287 kts | 235° |
| 2026-05-07 04:53 | -30.84805 | 121.34187 | 9312 ft | 293 kts | 235° |
| 2026-05-07 04:54 | -30.85889 | 121.32163 | 10200 ft | 299 kts | 236° |
| 2026-05-07 04:54 | -30.87023 | 121.30034 | 10720 ft | 316 kts | 236° |
| 2026-05-07 04:54 | -30.88219 | 121.27777 | 11010 ft | 339 kts | 236° |
| 2026-05-07 04:54 | -30.89485 | 121.25374 | 11511 ft | 352 kts | 236° |
| 2026-05-07 04:55 | -30.90769 | 121.22920 | 12249 ft | 357 kts | 236° |
| 2026-05-07 04:55 | -30.92058 | 121.20457 | 13026 ft | 361 kts | 236° |
| 2026-05-07 04:55 | -30.93373 | 121.17943 | 13804 ft | 364 kts | 236° |
| 2026-05-07 04:55 | -30.94698 | 121.15408 | 14545 ft | 368 kts | 236° |
| 2026-05-07 04:56 | -30.96036 | 121.12843 | 15235 ft | 371 kts | 237° |
| 2026-05-07 04:56 | -30.97367 | 121.10297 | 15930 ft | 373 kts | 237° |
| 2026-05-07 04:56 | -30.98724 | 121.07703 | 16617 ft | 375 kts | 237° |
| 2026-05-07 04:56 | -31.00083 | 121.05100 | 17304 ft | 377 kts | 237° |
| 2026-05-07 04:57 | -31.01454 | 121.02472 | 18000 ft | 380 kts | 237° |
| 2026-05-07 04:57 | -31.02839 | 120.99818 | 18731 ft | 382 kts | 237° |
| 2026-05-07 04:57 | -31.04229 | 120.97152 | 19367 ft | 385 kts | 237° |
| 2026-05-07 04:57 | -31.05626 | 120.94471 | 19997 ft | 388 kts | 237° |
| 2026-05-07 04:58 | -31.07034 | 120.91767 | 20638 ft | 391 kts | 237° |
| 2026-05-07 04:58 | -31.08435 | 120.89076 | 21254 ft | 394 kts | 237° |
| 2026-05-07 04:58 | -31.09866 | 120.86322 | 21858 ft | 398 kts | 237° |
| 2026-05-07 04:58 | -31.11307 | 120.83547 | 22431 ft | 401 kts | 237° |
| 2026-05-07 04:59 | -31.12767 | 120.80737 | 22998 ft | 404 kts | 237° |
| 2026-05-07 04:59 | -31.14211 | 120.77955 | 23553 ft | 407 kts | 237° |
| 2026-05-07 04:59 | -31.15682 | 120.75119 | 24088 ft | 410 kts | 238° |
| 2026-05-07 04:59 | -31.17162 | 120.72260 | 24558 ft | 412 kts | 238° |
| 2026-05-07 05:00 | -31.18654 | 120.69378 | 25010 ft | 414 kts | 238° |
| 2026-05-07 05:00 | -31.20149 | 120.66487 | 25445 ft | 417 kts | 238° |
| 2026-05-07 05:00 | -31.21653 | 120.63579 | 25890 ft | 419 kts | 238° |
| 2026-05-07 05:00 | -31.23164 | 120.60660 | 26315 ft | 421 kts | 238° |
| 2026-05-07 05:01 | -31.24681 | 120.57723 | 26732 ft | 423 kts | 238° |
| 2026-05-07 05:01 | -31.26188 | 120.54799 | 27150 ft | 425 kts | 238° |
| 2026-05-07 05:01 | -31.27722 | 120.51816 | 27564 ft | 428 kts | 238° |
| 2026-05-07 05:01 | -31.29260 | 120.48821 | 27978 ft | 430 kts | 238° |
| 2026-05-07 05:02 | -31.30789 | 120.45804 | 28381 ft | 433 kts | 240° |
| 2026-05-07 05:02 | -31.32073 | 120.42604 | 28769 ft | 436 kts | 245° |
| 2026-05-07 05:02 | -31.33307 | 120.39350 | 29167 ft | 439 kts | 245° |
| 2026-05-07 05:02 | -31.34537 | 120.36110 | 29543 ft | 441 kts | 245° |
| 2026-05-07 05:03 | -31.35784 | 120.32824 | 29925 ft | 443 kts | 244° |
| 2026-05-07 05:03 | -31.37043 | 120.29510 | 30278 ft | 446 kts | 244° |
| 2026-05-07 05:03 | -31.38313 | 120.26168 | 30626 ft | 448 kts | 245° |
| 2026-05-07 05:03 | -31.39584 | 120.22816 | 30930 ft | 450 kts | 245° |
| 2026-05-07 05:04 | -31.40840 | 120.19498 | 31342 ft | 449 kts | 245° |
| 2026-05-07 05:04 | -31.42107 | 120.16146 | 31790 ft | 448 kts | 245° |
| 2026-05-07 05:04 | -31.43367 | 120.12813 | 32228 ft | 446 kts | 245° |
| 2026-05-07 05:04 | -31.44625 | 120.09477 | 32440 ft | 446 kts | 245° |
| 2026-05-07 05:05 | -31.47089 | 120.02919 | 32480 ft | 439 kts | 245° |
| 2026-05-07 05:05 | -31.49549 | 119.96382 | 32477 ft | 438 kts | 245° |
| 2026-05-07 05:06 | -31.52004 | 119.89837 | 32478 ft | 439 kts | 245° |
| 2026-05-07 05:06 | -31.54455 | 119.83268 | 32477 ft | 439 kts | 245° |
| 2026-05-07 05:07 | -31.56904 | 119.76721 | 32475 ft | 439 kts | 245° |
| 2026-05-07 05:07 | -31.59344 | 119.70203 | 32470 ft | 439 kts | 245° |
| 2026-05-07 05:08 | -31.61794 | 119.63630 | 32470 ft | 439 kts | 245° |
| 2026-05-07 05:08 | -31.64237 | 119.57051 | 32471 ft | 439 kts | 245° |
| 2026-05-07 05:09 | -31.66678 | 119.50471 | 32470 ft | 439 kts | 245° |
| 2026-05-07 05:09 | -31.69112 | 119.43893 | 32468 ft | 439 kts | 245° |
| 2026-05-07 05:10 | -31.71529 | 119.37349 | 32468 ft | 440 kts | 245° |
| 2026-05-07 05:10 | -31.73970 | 119.30736 | 32469 ft | 440 kts | 245° |
| 2026-05-07 05:11 | -31.76402 | 119.24138 | 32468 ft | 440 kts | 245° |
| 2026-05-07 05:11 | -31.78822 | 119.17572 | 32466 ft | 440 kts | 245° |
| 2026-05-07 05:12 | -31.81243 | 119.10951 | 32467 ft | 440 kts | 245° |
| 2026-05-07 05:12 | -31.83663 | 119.04331 | 32468 ft | 440 kts | 245° |
| 2026-05-07 05:13 | -31.85683 | 118.98830 | 32467 ft | 440 kts | 245° |
| 2026-05-07 05:13 | -31.88102 | 118.92206 | 32466 ft | 440 kts | 245° |
| 2026-05-07 05:14 | -31.90513 | 118.85578 | 32464 ft | 440 kts | 245° |
| 2026-05-07 05:14 | -31.92908 | 118.78986 | 32462 ft | 440 kts | 245° |
| 2026-05-07 05:15 | -31.95315 | 118.72344 | 32464 ft | 441 kts | 245° |
| 2026-05-07 05:15 | -31.97723 | 118.65700 | 32463 ft | 441 kts | 245° |
| 2026-05-07 05:16 | -32.00130 | 118.59032 | 32458 ft | 441 kts | 245° |
| 2026-05-07 05:16 | -32.02518 | 118.52409 | 32460 ft | 441 kts | 245° |
| 2026-05-07 05:17 | -32.04923 | 118.45745 | 32458 ft | 441 kts | 245° |
| 2026-05-07 05:17 | -32.07312 | 118.39076 | 32459 ft | 441 kts | 245° |
| 2026-05-07 05:18 | -32.09833 | 118.32518 | 32460 ft | 441 kts | 243° |
| 2026-05-07 05:18 | -32.12501 | 118.26007 | 32461 ft | 441 kts | 243° |
| 2026-05-07 05:19 | -32.15157 | 118.19479 | 32459 ft | 441 kts | 243° |
| 2026-05-07 05:19 | -32.17768 | 118.12916 | 32459 ft | 441 kts | 243° |
| 2026-05-07 05:20 | -32.20365 | 118.06339 | 32432 ft | 443 kts | 243° |
| 2026-05-07 05:20 | -32.23003 | 117.99645 | 32463 ft | 451 kts | 243° |
| 2026-05-07 05:21 | -32.26973 | 117.89597 | 32457 ft | 452 kts | 244° |
| 2026-05-07 05:22 | -32.29631 | 117.82843 | 32467 ft | 452 kts | 243° |
| 2026-05-07 05:22 | -32.31917 | 117.75920 | 32466 ft | 454 kts | 259° |
| 2026-05-07 05:22 | -32.32047 | 117.72194 | 32465 ft | 456 kts | 275° |
| 2026-05-07 05:23 | -32.31500 | 117.68489 | 32371 ft | 457 kts | 280° |
| 2026-05-07 05:23 | -32.30887 | 117.64833 | 31411 ft | 462 kts | 281° |
| 2026-05-07 05:23 | -32.30253 | 117.61100 | 31025 ft | 464 kts | 281° |
| 2026-05-07 05:23 | -32.29605 | 117.57322 | 30750 ft | 469 kts | 281° |
| 2026-05-07 05:24 | -32.28955 | 117.53532 | 29622 ft | 473 kts | 281° |
| 2026-05-07 05:24 | -32.28302 | 117.49703 | 28570 ft | 475 kts | 281° |
| 2026-05-07 05:24 | -32.27659 | 117.45919 | 27984 ft | 466 kts | 282° |
| 2026-05-07 05:24 | -32.27027 | 117.42184 | 27244 ft | 461 kts | 282° |
| 2026-05-07 05:25 | -32.26402 | 117.38478 | 26540 ft | 457 kts | 282° |
| 2026-05-07 05:25 | -32.25792 | 117.34851 | 25845 ft | 454 kts | 282° |
| 2026-05-07 05:25 | -32.25177 | 117.31209 | 25146 ft | 451 kts | 282° |
| 2026-05-07 05:25 | -32.24560 | 117.27588 | 24451 ft | 448 kts | 282° |
| 2026-05-07 05:26 | -32.23942 | 117.23988 | 23708 ft | 445 kts | 282° |
| 2026-05-07 05:26 | -32.23323 | 117.20405 | 23009 ft | 441 kts | 283° |
| 2026-05-07 05:26 | -32.22714 | 117.16881 | 22355 ft | 436 kts | 283° |
| 2026-05-07 05:26 | -32.22111 | 117.13388 | 21726 ft | 431 kts | 283° |
| 2026-05-07 05:27 | -32.21516 | 117.09937 | 21114 ft | 428 kts | 283° |
| 2026-05-07 05:27 | -32.20925 | 117.06504 | 20532 ft | 424 kts | 283° |
| 2026-05-07 05:27 | -32.20339 | 117.03105 | 19953 ft | 422 kts | 283° |
| 2026-05-07 05:27 | -32.19752 | 116.99714 | 19380 ft | 420 kts | 283° |
| 2026-05-07 05:28 | -32.19171 | 116.96378 | 18796 ft | 419 kts | 283° |
| 2026-05-07 05:28 | -32.18583 | 116.93015 | 18141 ft | 417 kts | 283° |
| 2026-05-07 05:28 | -32.17999 | 116.89667 | 17462 ft | 415 kts | 283° |
| 2026-05-07 05:28 | -32.17461 | 116.86345 | 16940 ft | 409 kts | 281° |
| 2026-05-07 05:29 | -32.16978 | 116.83035 | 16310 ft | 407 kts | 281° |
| 2026-05-07 05:29 | -32.16525 | 116.79750 | 15667 ft | 404 kts | 280° |
| 2026-05-07 05:29 | -32.16080 | 116.76484 | 15030 ft | 401 kts | 280° |
| 2026-05-07 05:29 | -32.15630 | 116.73239 | 14387 ft | 399 kts | 281° |
| 2026-05-07 05:30 | -32.15174 | 116.70017 | 13694 ft | 396 kts | 281° |
| 2026-05-07 05:30 | -32.14720 | 116.66870 | 13060 ft | 391 kts | 281° |
| 2026-05-07 05:30 | -32.14264 | 116.63726 | 12422 ft | 387 kts | 281° |
| 2026-05-07 05:30 | -32.13808 | 116.60608 | 11789 ft | 383 kts | 281° |
| 2026-05-07 05:31 | -32.13355 | 116.57529 | 11179 ft | 379 kts | 281° |
| 2026-05-07 05:31 | -32.12913 | 116.54531 | 10979 ft | 362 kts | 281° |
| 2026-05-07 05:31 | -32.12492 | 116.51663 | 10859 ft | 347 kts | 281° |
| 2026-05-07 05:31 | -32.12088 | 116.48916 | 10735 ft | 333 kts | 281° |
| 2026-05-07 05:32 | -32.11697 | 116.46273 | 10615 ft | 321 kts | 281° |
| 2026-05-07 05:32 | -32.11318 | 116.43719 | 10445 ft | 312 kts | 281° |
| 2026-05-07 05:32 | -32.10945 | 116.41213 | 10130 ft | 308 kts | 281° |
| 2026-05-07 05:32 | -32.10576 | 116.38729 | 9745 ft | 307 kts | 282° |
| 2026-05-07 05:33 | -32.10208 | 116.36251 | 9390 ft | 305 kts | 281° |
| 2026-05-07 05:33 | -32.09848 | 116.33825 | 9041 ft | 304 kts | 281° |
| 2026-05-07 05:33 | -32.09486 | 116.31375 | 8678 ft | 302 kts | 282° |
| 2026-05-07 05:33 | -32.09126 | 116.28942 | 8331 ft | 300 kts | 282° |
| 2026-05-07 05:34 | -32.08759 | 116.26474 | 7577 ft | 312 kts | 281° |
| 2026-05-07 05:34 | -32.08373 | 116.23898 | 6910 ft | 322 kts | 282° |
| 2026-05-07 05:34 | -32.07984 | 116.21301 | 6420 ft | 321 kts | 282° |
| 2026-05-07 05:34 | -32.07600 | 116.18713 | 5974 ft | 318 kts | 282° |
| 2026-05-07 05:35 | -32.07218 | 116.16153 | 5537 ft | 316 kts | 282° |
| 2026-05-07 05:35 | -32.06836 | 116.13606 | 5099 ft | 314 kts | 282° |
| 2026-05-07 05:35 | -32.06459 | 116.11101 | 4663 ft | 313 kts | 281° |
| 2026-05-07 05:35 | -32.06078 | 116.08578 | 4240 ft | 314 kts | 282° |
| 2026-05-07 05:36 | -32.05696 | 116.06067 | 3810 ft | 312 kts | 282° |
| 2026-05-07 05:36 | -32.05483 | 116.04663 | 3568 ft | 312 kts | 281° |
| 2026-05-07 05:36 | -32.05103 | 116.02162 | 3150 ft | 308 kts | 282° |
| 2026-05-07 05:36 | -32.04724 | 115.99662 | 2739 ft | 308 kts | 281° |
| 2026-05-07 05:37 | -32.04358 | 115.97251 | 2295 ft | 294 kts | 282° |
| 2026-05-07 05:37 | -32.03615 | 115.95116 | 1903 ft | 273 kts | 313° |
| 2026-05-07 05:37 | -32.02179 | 115.93999 | 1753 ft | 225 kts | 355° |
| 2026-05-07 05:37 | -32.00800 | 115.94172 | 1456 ft | 187 kts | 30° |
| 2026-05-07 05:38 | -31.99670 | 115.94800 | 1061 ft | 170 kts | 26° |
| 2026-05-07 05:38 | -31.98612 | 115.95157 | 848 ft | 149 kts | 14° |
| 2026-05-07 05:38 | -31.97636 | 115.95437 | 453 ft | 143 kts | 16° |
| 2026-05-07 05:38 | -31.96678 | 115.95726 | 293 ft | 139 kts | 18° |
| 2026-05-07 05:39 | -31.95797 | 115.95986 | 101 ft | 120 kts | 19° |
| 2026-05-07 05:39 | -31.95076 | 115.96201 | 63 ft | 89 kts | 14° |
| 2026-05-07 05:39 | -31.94640 | 115.96329 | 59 ft | 50 kts | 15° |
| 2026-05-07 05:39 | -31.94314 | 115.96423 | 58 ft | 47 kts | 14° |
| 2026-05-07 05:40 | -31.93999 | 115.96518 | 59 ft | 46 kts | 15° |
| 2026-05-07 05:40 | -31.93692 | 115.96601 | 56 ft | 40 kts | 14° |
| 2026-05-07 05:40 | -31.93520 | 115.96622 | 53 ft | 5 kts | 307° |
| 2026-05-07 05:40 | -31.93503 | 115.96555 | 53 ft | 16 kts | 295° |
| 2026-05-07 05:41 | -31.93452 | 115.96425 | 52 ft | 16 kts | 292° |
| 2026-05-07 05:41 | -31.93447 | 115.96411 | 53 ft | 0 kts | 293° |
| 2026-05-07 05:51 | -31.93438 | 115.96388 | 50 ft | 7 kts | 296° |
| 2026-05-07 05:51 | -31.93430 | 115.96370 | 50 ft | 2 kts | 296° |
| 2026-05-07 05:52 | -31.93368 | 115.96322 | 52 ft | 17 kts | 347° |
| 2026-05-07 05:52 | -31.93262 | 115.96328 | 50 ft | 14 kts | 349° |
| 2026-05-07 05:52 | -31.93219 | 115.96263 | 52 ft | 0 kts | 286° |
| 2026-05-07 05:52 | -31.93216 | 115.96253 | 54 ft | 3 kts | 286° |
| 2026-05-07 05:53 | -31.93215 | 115.96217 | 54 ft | 5 kts | 257° |
| 2026-05-07 05:53 | -31.93222 | 115.96203 | 55 ft | 0 kts | 231° |
| 2026-05-07 05:54 | -31.93225 | 115.96200 | 50 ft | 2 kts | 230° |
| 2026-05-07 05:54 | -31.93234 | 115.96190 | 54 ft | 1 kts | 220° |
| 2026-05-07 05:54 | -31.93244 | 115.96180 | 55 ft | 3 kts | 220° |
| 2026-05-07 05:54 | -31.93250 | 115.96175 | 55 ft | 0 kts | 219° |